Terminal Aerodrome Forecast
Issued by NWS

Home | Current Version | Previous Version | Text Only | Print | Product List | Glossary On
Versions: 1 2 3 4 5 6 7 8 9 10 11 12 13 14 15 16 17 18
000
FTUS43 KSGF 311700
TAFJLN
TAF
KJLN 311732Z 3118/0118 05004KT P6SM SCT030 BKN070
      TEMPO 3118/3121 BKN030
     FM010100 VRB03KT P6SM SKC
     FM010500 00000KT 4SM BR SKC
     FM010900 00000KT 1SM BR SCT002
     FM011330 VRB03KT 4SM BR SKC
     FM011430 VRB04KT P6SM FEW015=

USA.gov is the U.S. government's official web portal to all federal, state and local government web resources and services.